createdAt,value
2019-01-12T00:00:04.835Z,9.63
2019-01-12T00:02:46.216Z,12.23
2019-01-12T00:05:27.637Z,12.17
2019-01-12T00:08:09.561Z,12.27
2019-01-12T00:10:51.679Z,12.63
2019-01-12T00:13:33.789Z,13.13
2019-01-12T00:16:15.608Z,10.70
2019-01-12T00:18:57.771Z,11.40
2019-01-12T00:21:39.923Z,12.60
2019-01-12T00:24:21.777Z,12.07
2019-01-12T00:27:03.381Z,12.43
2019-01-12T00:29:45.269Z,10.97
2019-01-12T00:32:27.563Z,12.90
2019-01-12T00:35:09.491Z,12.60
2019-01-12T00:37:51.009Z,11.53
2019-01-12T00:40:32.534Z,12.90
2019-01-12T00:43:14.068Z,12.20
2019-01-12T00:45:56.042Z,11.00
2019-01-12T00:48:37.623Z,10.50
2019-01-12T00:51:19.696Z,10.50
2019-01-12T00:54:01.522Z,10.90
2019-01-12T00:56:43.518Z,12.07
2019-01-12T00:59:25.103Z,9.60
2019-01-12T01:02:07.049Z,10.90
2019-01-12T01:04:49.225Z,10.17
2019-01-12T01:07:30.617Z,10.77
2019-01-12T01:10:13.410Z,9.80
2019-01-12T01:12:54.872Z,9.97
2019-01-12T01:15:38.237Z,11.03
2019-01-12T01:18:19.931Z,11.17
2019-01-12T01:21:02.895Z,10.77
2019-01-12T01:23:45.101Z,9.97
2019-01-12T01:26:26.886Z,10.43
2019-01-12T01:29:08.477Z,8.90
2019-01-12T01:31:50.616Z,10.83
2019-01-12T01:34:32.665Z,10.87
2019-01-12T01:37:14.067Z,9.50
2019-01-12T01:39:54.081Z,12.07
2019-01-12T01:42:43.025Z,14.33
2019-01-12T01:45:26.345Z,15.77
2019-01-12T01:48:07.893Z,13.63
2019-01-12T01:50:50.158Z,14.90
2019-01-12T01:53:31.677Z,15.80
2019-01-12T01:56:13.590Z,15.03
2019-01-12T01:58:55.286Z,14.67
2019-01-12T02:01:36.724Z,13.83
2019-01-12T02:04:18.494Z,15.40
2019-01-12T02:07:00.418Z,14.27
2019-01-12T02:09:42.223Z,11.33
2019-01-12T02:12:24.326Z,14.13
2019-01-12T02:15:07.710Z,12.37
2019-01-12T02:17:49.394Z,10.80
2019-01-12T02:20:30.970Z,10.53
2019-01-12T02:23:19.910Z,11.53
2019-01-12T02:26:03.454Z,10.87
2019-01-12T02:28:45.062Z,12.40
2019-01-12T02:31:26.760Z,9.60
2019-01-12T02:34:08.421Z,8.83
2019-01-12T02:36:50.127Z,10.00
2019-01-12T02:39:31.758Z,9.20
2019-01-12T02:42:14.881Z,8.07
2019-01-12T02:44:56.893Z,8.97
2019-01-12T02:47:39.029Z,8.93
2019-01-12T02:50:21.081Z,8.93
2019-01-12T02:53:03.459Z,9.43
2019-01-12T02:55:45.362Z,9.20
2019-01-12T02:58:27.526Z,10.23
2019-01-12T03:01:09.443Z,9.07
2019-01-12T03:03:51.566Z,12.33
2019-01-12T03:06:33.730Z,9.53
2019-01-12T03:09:15.539Z,8.77
2019-01-12T03:11:57.489Z,8.47
2019-01-12T03:14:39.344Z,9.80
2019-01-12T03:17:21.267Z,9.80
2019-01-12T03:20:04.032Z,10.30
2019-01-12T03:22:46.077Z,8.87
2019-01-12T03:25:28.862Z,9.65
2019-01-12T03:28:10.731Z,8.83
2019-01-12T03:30:52.562Z,11.17
2019-01-12T03:33:34.685Z,11.10
2019-01-12T03:36:17.008Z,11.13
2019-01-12T03:38:59.398Z,11.33
2019-01-12T03:41:41.370Z,9.27
2019-01-12T03:44:23.435Z,10.40
2019-01-12T03:47:05.366Z,9.57
2019-01-12T03:49:47.418Z,10.03
2019-01-12T03:52:30.170Z,9.38
2019-01-12T03:55:12.318Z,9.37
2019-01-12T03:58:13.021Z,9.17
2019-01-12T04:01:13.738Z,8.73
2019-01-12T04:04:14.274Z,10.23
2019-01-12T04:06:57.154Z,9.23
2019-01-12T04:09:39.252Z,8.47
2019-01-12T04:12:21.273Z,8.93
2019-01-12T04:15:04.385Z,9.27
2019-01-12T04:17:46.458Z,9.83
2019-01-12T04:20:28.574Z,10.87
2019-01-12T04:23:10.201Z,9.53
2019-01-12T04:25:54.094Z,8.17
2019-01-12T04:28:36.270Z,8.77
2019-01-12T04:31:18.154Z,8.57
2019-01-12T04:33:47.887Z,8.50
2019-01-12T04:36:17.541Z,9.90
2019-01-12T04:38:47.176Z,8.40
2019-01-12T04:41:16.758Z,8.40
2019-01-12T04:43:46.500Z,8.17
2019-01-12T04:46:16.064Z,8.77
2019-01-12T04:48:47.198Z,8.00
2019-01-12T04:51:16.890Z,7.53
2019-01-12T04:53:46.537Z,8.43
2019-01-12T04:56:16.120Z,8.63
2019-01-12T04:58:45.733Z,7.43
2019-01-12T05:01:15.425Z,8.63
2019-01-12T05:03:45.036Z,8.20
2019-01-12T05:06:14.629Z,8.70
2019-01-12T05:08:44.353Z,8.73
2019-01-12T05:11:13.942Z,8.43
2019-01-12T05:13:43.570Z,10.03
2019-01-12T05:16:13.373Z,9.93
2019-01-12T05:18:43.083Z,11.43
2019-01-12T05:21:12.677Z,10.10
2019-01-12T05:23:42.391Z,11.97
2019-01-12T05:26:11.992Z,9.10
2019-01-12T05:28:41.609Z,8.50
2019-01-12T05:31:11.197Z,10.00
2019-01-12T05:33:41.108Z,9.20
2019-01-12T05:36:12.220Z,9.03
2019-01-12T05:38:42.461Z,8.40
2019-01-12T05:41:12.053Z,8.17
2019-01-12T05:43:41.664Z,9.97
2019-01-12T05:46:11.317Z,7.60
2019-01-12T05:48:40.890Z,9.13
2019-01-12T05:51:10.592Z,10.10
2019-01-12T05:53:40.204Z,8.63
2019-01-12T05:56:09.828Z,8.50
2019-01-12T05:58:39.416Z,9.70
2019-01-12T06:01:09.107Z,8.10
2019-01-12T06:03:38.761Z,8.57
2019-01-12T06:06:08.381Z,7.67
2019-01-12T06:08:37.969Z,7.70
2019-01-12T06:11:07.588Z,6.77
2019-01-12T06:13:37.184Z,7.47
2019-01-12T06:16:06.790Z,7.80
2019-01-12T06:18:36.380Z,7.67
2019-01-12T06:21:06.065Z,8.40
2019-01-12T06:23:35.661Z,8.60
2019-01-12T06:26:05.352Z,8.63
2019-01-12T06:28:34.888Z,9.63
2019-01-12T06:31:04.648Z,10.73
2019-01-12T06:33:34.254Z,7.67
2019-01-12T06:36:04.636Z,8.20
2019-01-12T06:38:34.405Z,7.87
2019-01-12T06:41:04.142Z,10.20
2019-01-12T06:43:33.712Z,8.10
2019-01-12T06:46:03.328Z,8.23
2019-01-12T06:48:32.932Z,9.50
2019-01-12T06:51:02.660Z,9.73
2019-01-12T06:53:32.828Z,11.18
2019-01-12T06:56:02.500Z,9.60
2019-01-12T06:58:32.101Z,8.80
2019-01-12T07:01:01.712Z,9.53
2019-01-12T07:03:31.305Z,8.83
2019-01-12T07:06:01.947Z,10.50
2019-01-12T07:08:31.537Z,9.03
2019-01-12T07:11:02.102Z,10.08
2019-01-12T07:13:31.808Z,8.17
2019-01-12T07:16:01.496Z,9.37
2019-01-12T07:18:31.181Z,9.50
2019-01-12T07:21:00.849Z,8.97
2019-01-12T07:23:30.801Z,8.33
2019-01-12T07:26:00.470Z,7.47
2019-01-12T07:28:30.081Z,8.53
2019-01-12T07:30:59.677Z,8.80
2019-01-12T07:33:29.296Z,7.90
2019-01-12T07:35:58.902Z,8.03
2019-01-12T07:38:28.517Z,8.47
2019-01-12T07:40:58.110Z,8.80
2019-01-12T07:43:28.301Z,7.50
2019-01-12T07:45:58.003Z,7.77
2019-01-12T07:48:27.657Z,8.50
2019-01-12T07:50:57.253Z,7.43
2019-01-12T07:53:26.868Z,8.50
2019-01-12T07:55:56.473Z,8.27
2019-01-12T07:58:26.091Z,8.20
2019-01-12T08:00:55.800Z,9.33
2019-01-12T08:03:25.464Z,9.28
2019-01-12T08:05:55.081Z,8.20
2019-01-12T08:08:24.671Z,8.47
2019-01-12T08:10:54.284Z,7.47
2019-01-12T08:13:24.061Z,7.80
2019-01-12T08:15:53.673Z,8.30
2019-01-12T08:18:23.337Z,7.37
2019-01-12T08:20:53.027Z,6.53
2019-01-12T08:23:22.627Z,7.37
2019-01-12T08:25:53.496Z,6.42
2019-01-12T08:28:23.125Z,7.07
2019-01-12T08:30:53.282Z,6.53
2019-01-12T08:33:23.704Z,7.77
2019-01-12T08:35:53.403Z,6.67
2019-01-12T08:38:23.247Z,6.03
2019-01-12T08:40:52.925Z,5.97
2019-01-12T08:43:22.548Z,6.20
2019-01-12T08:45:52.150Z,6.47
2019-01-12T08:48:21.765Z,5.47
2019-01-12T08:50:53.489Z,5.42
2019-01-12T08:53:23.082Z,5.80
2019-01-12T08:55:53.271Z,5.70
2019-01-12T08:58:23.439Z,4.85
2019-01-12T09:00:54.984Z,5.33
2019-01-12T09:03:24.650Z,5.83
2019-01-12T09:05:54.260Z,7.30
2019-01-12T09:08:23.940Z,10.17
2019-01-12T09:10:53.666Z,7.27
2019-01-12T09:13:23.822Z,6.45
2019-01-12T09:15:53.441Z,6.93
2019-01-12T09:18:23.041Z,6.03
2019-01-12T09:20:53.313Z,6.78
2019-01-12T09:23:23.301Z,5.73
2019-01-12T09:25:53.491Z,6.42
2019-01-12T09:28:23.754Z,5.65
2019-01-12T09:30:53.990Z,6.10
2019-01-12T09:33:24.253Z,5.80
2019-01-12T09:35:54.557Z,4.87
2019-01-12T09:38:24.857Z,5.70
2019-01-12T09:40:55.219Z,5.58
2019-01-12T09:43:24.813Z,4.40
2019-01-12T09:45:54.987Z,5.03
2019-01-12T09:48:25.280Z,4.87
2019-01-12T09:50:55.440Z,5.30
2019-01-12T09:53:25.636Z,5.08
2019-01-12T09:55:55.780Z,5.20
2019-01-12T09:58:25.396Z,4.90
2019-01-12T10:00:55.557Z,6.10
2019-01-12T10:03:25.737Z,6.10
2019-01-12T10:05:55.901Z,6.90
2019-01-12T10:08:25.617Z,5.23
2019-01-12T10:10:55.347Z,14.50
2019-01-12T10:13:25.561Z,8.25
2019-01-12T10:15:55.797Z,25.92
2019-01-12T10:18:25.425Z,9.77
2019-01-12T10:20:55.017Z,4.43
2019-01-12T10:23:24.632Z,6.40
2019-01-12T10:25:54.405Z,9.07
2019-01-12T10:28:24.682Z,5.03
2019-01-12T10:30:54.277Z,22.17
2019-01-12T10:33:23.998Z,5.50
2019-01-12T10:35:54.155Z,7.10
2019-01-12T10:38:24.467Z,11.97
2019-01-12T10:40:54.607Z,5.10
2019-01-12T10:43:24.337Z,10.73
2019-01-12T10:45:54.517Z,13.53
2019-01-12T10:48:24.698Z,6.97
2019-01-12T10:50:54.846Z,5.35
2019-01-12T10:53:25.089Z,5.05
2019-01-12T10:55:55.253Z,6.17
2019-01-12T10:58:25.505Z,6.90
2019-01-12T11:00:55.659Z,5.47
2019-01-12T11:03:25.952Z,11.22
2019-01-12T11:05:56.115Z,4.90
2019-01-12T11:08:26.525Z,6.10
2019-01-12T11:10:56.702Z,7.80
2019-01-12T11:13:26.917Z,5.30
2019-01-12T11:15:57.057Z,9.70
2019-01-12T11:18:27.285Z,8.58
2019-01-12T11:20:58.076Z,20.25
2019-01-12T11:23:28.962Z,11.33
2019-01-12T11:25:59.195Z,7.70
2019-01-12T11:28:29.372Z,9.45
2019-01-12T11:30:59.557Z,24.07
2019-01-12T11:33:29.761Z,31.25
2019-01-12T11:36:00.203Z,64.90
2019-01-12T11:38:30.349Z,9.98
2019-01-12T11:41:00.527Z,7.33
2019-01-12T11:43:31.775Z,6.45
2019-01-12T11:46:02.091Z,8.23
2019-01-12T11:48:32.634Z,7.10
2019-01-12T11:51:11.206Z,7.12
2019-01-12T11:53:41.385Z,5.62
2019-01-12T11:56:11.612Z,7.25
2019-01-12T11:58:41.788Z,6.17
2019-01-12T12:01:12.012Z,5.90
2019-01-12T12:03:42.264Z,5.65
2019-01-12T12:06:12.489Z,5.45
2019-01-12T12:08:43.129Z,5.45
2019-01-12T12:11:13.349Z,5.22
2019-01-12T12:13:43.521Z,5.40
2019-01-12T12:16:13.681Z,5.90
2019-01-12T12:18:43.857Z,5.53
2019-01-12T12:21:14.077Z,5.50
2019-01-12T12:23:44.252Z,5.70
2019-01-12T12:26:15.088Z,5.85
2019-01-12T12:28:48.091Z,5.20
2019-01-12T12:31:24.868Z,10.10
2019-01-12T12:33:56.437Z,9.98
2019-01-12T12:36:29.508Z,6.10
2019-01-12T12:39:02.085Z,5.70
2019-01-12T12:41:34.048Z,5.90
2019-01-12T12:44:05.703Z,5.75
2019-01-12T12:46:36.445Z,5.83
2019-01-12T12:49:09.192Z,5.20
2019-01-12T12:51:41.891Z,5.65
2019-01-12T12:54:12.415Z,4.47
2019-01-12T12:56:43.400Z,5.35
2019-01-12T12:59:14.900Z,6.50
2019-01-12T13:01:45.777Z,6.25
2019-01-12T13:04:16.129Z,6.78
2019-01-12T13:06:46.313Z,6.53
2019-01-12T13:09:16.792Z,6.62
2019-01-12T13:11:46.977Z,6.40
2019-01-12T13:14:17.258Z,14.63
2019-01-12T13:16:47.418Z,9.03
2019-01-12T13:19:17.596Z,7.85
2019-01-12T13:21:47.796Z,15.10
2019-01-12T13:24:18.049Z,8.63
2019-01-12T13:26:48.292Z,23.32
2019-01-12T13:29:18.497Z,24.85
2019-01-12T13:31:50.389Z,9.95
2019-01-12T13:34:20.716Z,10.88
2019-01-12T13:36:51.001Z,23.45
2019-01-12T13:39:21.237Z,9.03
2019-01-12T13:41:51.400Z,9.53
2019-01-12T13:44:21.866Z,20.23
2019-01-12T13:46:52.033Z,12.63
2019-01-12T13:49:22.325Z,9.98
2019-01-12T13:51:52.518Z,21.07
2019-01-12T13:54:22.738Z,22.82
2019-01-12T13:56:52.915Z,16.93
2019-01-12T13:59:23.204Z,8.53
2019-01-12T14:01:53.006Z,10.97
2019-01-12T14:04:23.204Z,10.60
2019-01-12T14:06:53.594Z,46.85
2019-01-12T14:09:23.800Z,24.52
2019-01-12T14:11:53.988Z,11.85
2019-01-12T14:14:24.381Z,12.93
2019-01-12T14:16:54.546Z,7.85
2019-01-12T14:19:24.828Z,7.85
2019-01-12T14:21:54.989Z,8.60
2019-01-12T14:24:25.173Z,7.97
2019-01-12T14:26:55.561Z,7.97
2019-01-12T14:29:25.181Z,8.13
2019-01-12T14:31:55.433Z,6.15
2019-01-12T14:34:25.634Z,6.37
2019-01-12T14:36:55.895Z,8.78
2019-01-12T14:39:26.206Z,8.28
2019-01-12T14:41:55.805Z,6.85
2019-01-12T14:44:26.135Z,7.17
2019-01-12T14:46:56.348Z,5.80
2019-01-12T14:49:26.632Z,5.70
2019-01-12T14:51:56.817Z,5.87
2019-01-12T14:54:26.984Z,5.80
2019-01-12T14:56:57.352Z,5.33
2019-01-12T14:59:27.628Z,6.35
2019-01-12T15:01:57.937Z,4.53
2019-01-12T15:04:28.077Z,4.78
2019-01-12T15:06:57.744Z,4.97
2019-01-12T15:09:27.914Z,4.55
2019-01-12T15:11:58.205Z,4.65
2019-01-12T15:14:28.374Z,4.53
2019-01-12T15:16:58.554Z,8.95
2019-01-12T15:19:28.721Z,6.12
2019-01-12T15:21:58.904Z,9.20
2019-01-12T15:24:29.073Z,10.20
2019-01-12T15:26:59.284Z,16.42
2019-01-12T15:29:29.484Z,17.62
2019-01-12T15:31:59.660Z,5.50
2019-01-12T15:34:29.822Z,4.97
2019-01-12T15:37:00.001Z,5.00
2019-01-12T15:39:30.148Z,5.28
2019-01-12T15:42:00.373Z,5.00
2019-01-12T15:44:30.546Z,4.83
2019-01-12T15:47:00.709Z,5.45
2019-01-12T15:49:30.877Z,4.37
2019-01-12T15:52:01.270Z,4.50
2019-01-12T15:54:31.421Z,5.17
2019-01-12T15:57:01.592Z,5.37
2019-01-12T15:59:31.861Z,6.10
2019-01-12T16:02:03.713Z,9.00
2019-01-12T16:04:33.944Z,7.33
2019-01-12T16:07:04.328Z,5.00
2019-01-12T16:09:34.484Z,5.15
2019-01-12T16:12:04.829Z,4.05
2019-01-12T16:14:34.981Z,4.67
2019-01-12T16:17:05.242Z,4.10
2019-01-12T16:19:35.514Z,3.60
2019-01-12T16:22:07.010Z,4.00
2019-01-12T16:24:37.172Z,4.15
2019-01-12T16:27:07.373Z,3.77
2019-01-12T16:29:37.661Z,4.83
2019-01-12T16:32:07.273Z,3.97
2019-01-12T16:34:37.569Z,4.45
2019-01-12T16:37:07.162Z,4.33
2019-01-12T16:39:37.543Z,7.33
2019-01-12T16:42:07.928Z,4.05
2019-01-12T16:44:38.167Z,3.45
2019-01-12T16:47:14.990Z,3.27
2019-01-12T16:49:45.530Z,3.77
2019-01-12T16:52:15.930Z,3.75
2019-01-12T16:54:46.094Z,4.22
2019-01-12T16:57:16.285Z,3.90
2019-01-12T16:59:46.552Z,4.03
2019-01-12T17:02:16.827Z,4.00
2019-01-12T17:04:46.418Z,4.13
2019-01-12T17:07:16.607Z,4.50
2019-01-12T17:09:46.196Z,3.13
2019-01-12T17:12:15.823Z,4.00
2019-01-12T17:14:45.401Z,4.63
2019-01-12T17:17:15.120Z,4.83
2019-01-12T17:19:45.300Z,4.60
2019-01-12T17:22:14.916Z,5.40
2019-01-12T17:24:44.504Z,5.03
2019-01-12T17:27:14.776Z,5.20
2019-01-12T17:29:44.936Z,5.78
2019-01-12T17:32:15.121Z,5.78
2019-01-12T17:34:44.829Z,6.92
2019-01-12T17:37:14.437Z,6.97
2019-01-12T17:39:44.597Z,6.30
2019-01-12T17:42:14.982Z,7.00
2019-01-12T17:44:44.678Z,6.47
2019-01-12T17:47:14.861Z,8.70
2019-01-12T17:49:45.119Z,7.55
2019-01-12T17:52:14.729Z,8.00
2019-01-12T17:54:44.892Z,9.80
2019-01-12T17:57:15.085Z,10.78
2019-01-12T17:59:45.348Z,7.50
2019-01-12T18:02:15.636Z,7.28
2019-01-12T18:04:45.793Z,7.35
2019-01-12T18:07:15.429Z,8.28
2019-01-12T18:09:45.581Z,7.55
2019-01-12T18:15:17.173Z,5.53
2019-01-12T18:17:46.788Z,6.20
2019-01-12T18:20:19.708Z,6.57
2019-01-12T18:22:49.335Z,7.10
2019-01-12T18:25:19.066Z,4.43
2019-01-12T18:27:49.232Z,5.47
2019-01-12T18:30:27.064Z,4.75
2019-01-12T18:32:56.752Z,5.07
2019-01-12T18:35:26.973Z,5.20
2019-01-12T18:37:56.666Z,5.67
2019-01-12T18:40:26.429Z,5.53
2019-01-12T18:42:56.117Z,5.33
2019-01-12T18:45:25.877Z,5.80
2019-01-12T18:47:55.569Z,5.83
2019-01-12T18:50:26.614Z,4.90
2019-01-12T18:52:57.087Z,5.00
2019-01-12T18:55:27.366Z,5.03
2019-01-12T18:57:58.733Z,5.15
2019-01-12T19:00:29.479Z,6.20
2019-01-12T19:02:59.526Z,7.97
2019-01-12T19:05:29.980Z,7.87
2019-01-12T19:08:01.691Z,7.13
2019-01-12T19:10:31.793Z,5.93
2019-01-12T19:13:01.935Z,5.35
2019-01-12T19:15:32.598Z,5.20
2019-01-12T19:18:02.905Z,8.35
2019-01-12T19:20:32.503Z,5.50
2019-01-12T19:23:02.132Z,6.10
2019-01-12T19:25:32.266Z,11.63
2019-01-12T19:28:01.869Z,5.83
2019-01-12T19:30:31.689Z,7.87
2019-01-12T19:33:01.592Z,7.10
2019-01-12T19:35:32.078Z,6.30
2019-01-12T19:38:01.788Z,4.60
2019-01-12T19:40:31.382Z,5.13
2019-01-12T19:43:01.006Z,5.10
2019-01-12T19:45:30.592Z,5.83
2019-01-12T19:48:00.791Z,4.35
2019-01-12T19:50:30.780Z,4.20
2019-01-12T19:53:00.444Z,5.30
2019-01-12T19:55:30.345Z,4.50
2019-01-12T19:58:01.103Z,4.77
2019-01-12T20:00:30.893Z,4.67
2019-01-12T20:03:00.549Z,3.47
2019-01-12T20:05:30.472Z,4.40
2019-01-12T20:08:00.057Z,3.92
2019-01-12T20:10:29.900Z,4.63
2019-01-12T20:13:00.029Z,5.67
2019-01-12T20:15:30.290Z,7.60
2019-01-12T20:18:00.545Z,5.08
2019-01-12T20:20:30.653Z,3.00
2019-01-12T20:23:00.241Z,3.17
2019-01-12T20:25:29.929Z,3.03
2019-01-12T20:27:59.589Z,2.43
2019-01-12T20:30:42.030Z,2.92
2019-01-12T20:33:14.779Z,3.50
2019-01-12T20:36:11.704Z,4.80
2019-01-12T20:38:53.125Z,3.80
2019-01-12T20:41:55.077Z,5.65
2019-01-12T20:44:30.285Z,3.33
2019-01-12T20:47:05.887Z,3.63
2019-01-12T20:49:38.775Z,3.43
2019-01-12T20:52:17.217Z,4.50
2019-01-12T20:54:59.182Z,3.25
2019-01-12T20:57:38.046Z,4.13
2019-01-12T21:00:36.431Z,3.37
2019-01-12T21:03:25.682Z,4.40
2019-01-12T21:06:16.808Z,2.98
2019-01-12T21:08:49.880Z,4.10
2019-01-12T21:11:39.144Z,2.80
2019-01-12T21:14:23.716Z,2.27
2019-01-12T21:16:53.513Z,2.70
2019-01-12T21:19:23.179Z,3.57
2019-01-12T21:21:52.848Z,3.37
2019-01-12T21:24:22.444Z,3.17
2019-01-12T21:26:52.797Z,2.92
2019-01-12T21:29:22.561Z,2.73
2019-01-12T21:31:52.424Z,2.63
2019-01-12T21:34:22.108Z,2.73
2019-01-12T21:36:51.934Z,2.87
2019-01-12T21:39:21.617Z,2.37
2019-01-12T21:41:51.289Z,2.80
2019-01-12T21:44:21.018Z,2.47
2019-01-12T21:46:50.610Z,3.07
2019-01-12T21:49:20.314Z,2.90
2019-01-12T21:51:49.921Z,3.13
2019-01-12T21:54:19.684Z,3.00
2019-01-12T21:56:49.517Z,3.33
2019-01-12T21:59:19.914Z,3.33
2019-01-12T22:01:49.713Z,3.53
2019-01-12T22:04:19.376Z,3.03
2019-01-12T22:06:48.989Z,2.93
2019-01-12T22:09:18.597Z,2.70
2019-01-12T22:11:48.830Z,3.12
2019-01-12T22:14:18.457Z,3.63
2019-01-12T22:16:48.050Z,2.77
2019-01-12T22:19:18.312Z,2.52
2019-01-12T22:21:47.911Z,3.30
2019-01-12T22:24:18.104Z,3.33
2019-01-12T22:26:47.793Z,3.07
2019-01-12T22:29:17.984Z,3.25
2019-01-12T22:31:48.153Z,3.00
2019-01-12T22:34:18.363Z,2.75
2019-01-12T22:37:07.861Z,2.90
2019-01-12T22:39:49.380Z,2.73
2019-01-12T22:42:32.307Z,3.27
2019-01-12T22:45:16.076Z,3.43
2019-01-12T22:47:57.633Z,3.08
2019-01-12T22:50:39.512Z,3.17
2019-01-12T22:53:21.721Z,3.10
2019-01-12T22:56:04.641Z,2.92
2019-01-12T22:58:46.326Z,2.77
2019-01-12T23:01:29.229Z,2.92
2019-01-12T23:04:11.350Z,3.27
2019-01-12T23:06:53.257Z,2.70
2019-01-12T23:09:35.613Z,2.90
2019-01-12T23:12:18.501Z,2.40
2019-01-12T23:15:00.890Z,2.50
2019-01-12T23:17:43.164Z,2.80
2019-01-12T23:20:24.933Z,2.10
2019-01-12T23:23:06.515Z,2.30
2019-01-12T23:25:48.554Z,2.27
2019-01-12T23:28:30.617Z,2.10
2019-01-12T23:31:12.536Z,2.00
2019-01-12T23:33:54.484Z,2.20
2019-01-12T23:36:36.613Z,2.30
2019-01-12T23:39:18.541Z,2.73
2019-01-12T23:42:00.636Z,2.20
2019-01-12T23:44:43.505Z,2.47
2019-01-12T23:47:25.830Z,2.55
2019-01-12T23:50:07.927Z,1.73
2019-01-12T23:52:49.954Z,2.77
2019-01-12T23:55:31.885Z,2.70
2019-01-12T23:58:14.577Z,2.52
